Time;durP1;ratioP1;P1;durP2;ratioP2;P2;SDS_P1;SDS_P2;PMS_P1;PMS_P2;Temp;Humidity;BMP_temperature;BMP_pressure;BME280_temperature;BME280_humidity;BME280_pressure;Samples;Min_cycle;Max_cycle;Signal;HPM_P1;HPM_P2
2023/04/06 00:02:16;;;;;;;27.13;12.85;;;;;;;;;;5051569;28;20040;-65
2023/04/06 00:04:42;;;;;;;25.23;13.82;;;;;;;;;;5051472;28;20035;-65
2023/04/06 00:07:08;;;;;;;18.48;9.85;;;;;;;;;;5051284;28;20017;-66
2023/04/06 00:09:34;;;;;;;16.17;9.07;;;;;;;;;;5051265;28;20509;-66
2023/04/06 00:12:01;;;;;;;18.80;9.10;;;;;;;;;;5051201;28;20116;-65
2023/04/06 00:14:27;;;;;;;23.08;12.85;;;;;;;;;;5051233;28;20392;-65
2023/04/06 00:16:53;;;;;;;23.38;10.95;;;;;;;;;;5051303;28;20025;-64
2023/04/06 00:19:19;;;;;;;24.05;10.48;;;;;;;;;;5051162;28;20032;-64
2023/04/06 00:21:45;;;;;;;18.30;8.40;;;;;;;;;;5051178;28;20033;-65
2023/04/06 00:24:11;;;;;;;12.75;7.82;;;;;;;;;;5051320;28;20029;-64
2023/04/06 00:26:37;;;;;;;15.15;7.80;;;;;;;;;;5050672;28;20108;-64
2023/04/06 00:29:03;;;;;;;12.20;6.50;;;;;;;;;;5050589;28;20104;-64
2023/04/06 00:31:29;;;;;;;13.65;7.38;;;;;;;;;;5051118;28;20052;-63
2023/04/06 00:33:55;;;;;;;13.63;5.25;;;;;;;;;;5051198;28;20013;-65
2023/04/06 00:36:21;;;;;;;14.07;6.68;;;;;;;;;;5050979;28;20028;-65
2023/04/06 00:38:47;;;;;;;12.43;6.40;;;;;;;;;;5051052;28;20108;-65
2023/04/06 00:41:14;;;;;;;13.15;5.22;;;;;;;;;;5050785;28;20083;-63
2023/04/06 00:43:40;;;;;;;9.10;4.32;;;;;;;;;;5050807;28;20017;-64
2023/04/06 00:46:06;;;;;;;11.35;4.85;;;;;;;;;;5051068;28;20107;-63
2023/04/06 00:48:32;;;;;;;13.85;5.55;;;;;;;;;;5050983;28;20021;-64
2023/04/06 00:50:59;;;;;;;10.40;5.28;;;;;;;;;;5050926;28;20485;-63
2023/04/06 00:53:25;;;;;;;12.73;5.63;;;;;;;;;;5050803;28;20036;-64
2023/04/06 00:55:51;;;;;;;10.95;4.93;;;;;;;;;;5051185;28;20017;-63
2023/04/06 00:58:17;;;;;;;14.60;6.50;;;;;;;;;;5051242;28;20071;-65
2023/04/06 01:00:43;;;;;;;19.30;7.60;;;;;;;;;;5050866;28;20558;-64
2023/04/06 01:03:09;;;;;;;9.90;6.03;;;;;;;;;;5050765;28;20022;-65
2023/04/06 01:05:40;;;;;;;16.98;6.50;;;;;;;;;;5049502;28;20048;-63
2023/04/06 01:08:06;;;;;;;18.30;5.78;;;;;;;;;;5050770;28;20027;-65
2023/04/06 01:10:32;;;;;;;12.40;6.32;;;;;;;;;;5050717;28;20021;-65
2023/04/06 01:12:58;;;;;;;13.05;5.63;;;;;;;;;;5050747;28;20025;-63
2023/04/06 01:15:25;;;;;;;17.63;6.03;;;;;;;;;;5050596;28;20024;-64
2023/04/06 01:17:51;;;;;;;13.25;4.80;;;;;;;;;;5050786;28;20033;-65
2023/04/06 01:20:17;;;;;;;17.90;6.63;;;;;;;;;;5049058;28;20025;-64
2023/04/06 01:22:43;;;;;;;13.13;6.82;;;;;;;;;;5050579;28;20021;-64
2023/04/06 01:25:10;;;;;;;15.40;5.75;;;;;;;;;;5050903;28;20052;-64
2023/04/06 01:27:36;;;;;;;17.08;6.00;;;;;;;;;;5050573;28;20029;-64
2023/04/06 01:30:02;;;;;;;12.00;4.68;;;;;;;;;;5050566;28;20028;-64
2023/04/06 01:32:28;;;;;;;12.02;4.63;;;;;;;;;;5050552;28;20033;-64
2023/04/06 01:34:54;;;;;;;12.77;5.55;;;;;;;;;;5050617;28;20048;-64
2023/04/06 01:37:20;;;;;;;13.85;5.63;;;;;;;;;;5050396;28;20017;-63
2023/04/06 01:39:46;;;;;;;12.93;5.53;;;;;;;;;;5052846;28;20031;-62
2023/04/06 01:42:12;;;;;;;16.33;5.97;;;;;;;;;;5053808;28;20049;-64
2023/04/06 01:44:38;;;;;;;12.73;4.75;;;;;;;;;;5054029;28;20043;-62
2023/04/06 01:47:05;;;;;;;15.80;4.40;;;;;;;;;;5053993;28;20028;-63
2023/04/06 01:49:31;;;;;;;14.45;4.32;;;;;;;;;;5053683;28;20021;-64
2023/04/06 01:51:57;;;;;;;15.43;5.35;;;;;;;;;;5053820;28;20049;-63
2023/04/06 01:54:23;;;;;;;14.30;4.28;;;;;;;;;;5053892;28;20021;-64
2023/04/06 01:56:51;;;;;;;15.77;6.60;;;;;;;;;;5053670;28;20587;-64
2023/04/06 01:59:17;;;;;;;11.98;6.57;;;;;;;;;;5053661;28;20052;-63
2023/04/06 02:01:43;;;;;;;11.45;5.53;;;;;;;;;;5053594;28;20037;-63
2023/04/06 02:04:09;;;;;;;10.82;5.32;;;;;;;;;;5053750;28;20048;-64
2023/04/06 02:06:35;;;;;;;13.95;5.50;;;;;;;;;;5053588;28;20104;-64
2023/04/06 02:09:01;;;;;;;14.45;7.00;;;;;;;;;;5053522;28;20100;-63
2023/04/06 02:11:27;;;;;;;18.13;5.93;;;;;;;;;;5053336;28;20086;-64
2023/04/06 02:13:53;;;;;;;15.13;5.20;;;;;;;;;;5053425;28;20170;-63
2023/04/06 02:16:19;;;;;;;17.83;7.90;;;;;;;;;;5053484;28;20025;-64
2023/04/06 02:18:45;;;;;;;14.13;6.65;;;;;;;;;;5052105;28;20093;-64
2023/04/06 02:21:12;;;;;;;15.73;5.82;;;;;;;;;;5053248;28;20041;-64
2023/04/06 02:23:38;;;;;;;15.73;6.30;;;;;;;;;;5053280;28;20607;-63
2023/04/06 02:26:05;;;;;;;19.75;6.20;;;;;;;;;;5053300;28;20033;-62
2023/04/06 02:28:31;;;;;;;12.27;6.10;;;;;;;;;;5053049;28;20027;-62
2023/04/06 02:30:57;;;;;;;13.38;6.07;;;;;;;;;;5053206;28;20065;-62
2023/04/06 02:33:23;;;;;;;16.15;5.00;;;;;;;;;;5053157;28;20028;-63
2023/04/06 02:35:49;;;;;;;12.90;6.93;;;;;;;;;;5053134;28;20028;-64
2023/04/06 02:38:15;;;;;;;11.40;6.07;;;;;;;;;;5052997;28;20028;-64
2023/04/06 02:40:41;;;;;;;14.02;7.30;;;;;;;;;;5052953;28;20424;-62
2023/04/06 02:43:07;;;;;;;9.35;5.60;;;;;;;;;;5053046;28;20045;-63
2023/04/06 02:45:33;;;;;;;20.90;9.27;;;;;;;;;;5053011;28;20549;-64
2023/04/06 02:47:59;;;;;;;12.65;7.38;;;;;;;;;;5052836;28;20470;-63
2023/04/06 02:50:25;;;;;;;18.67;5.72;;;;;;;;;;5051726;28;20497;-64
2023/04/06 02:52:52;;;;;;;13.43;6.22;;;;;;;;;;5052733;28;20061;-64
2023/04/06 02:55:19;;;;;;;17.58;6.28;;;;;;;;;;5052767;28;20031;-65
2023/04/06 02:57:45;;;;;;;20.05;8.07;;;;;;;;;;5052560;28;20033;-64
2023/04/06 03:00:12;;;;;;;16.90;7.45;;;;;;;;;;5052584;28;20025;-64
2023/04/06 03:02:38;;;;;;;19.92;6.20;;;;;;;;;;5052390;28;20024;-63
2023/04/06 03:05:05;;;;;;;11.73;6.10;;;;;;;;;;5052514;28;20028;-64
2023/04/06 03:07:31;;;;;;;15.15;6.28;;;;;;;;;;5052523;28;20138;-63
2023/04/06 03:09:57;;;;;;;16.08;5.88;;;;;;;;;;5052287;28;20056;-63
2023/04/06 03:12:23;;;;;;;18.00;5.75;;;;;;;;;;5052204;28;20094;-63
2023/04/06 03:14:49;;;;;;;20.33;7.18;;;;;;;;;;5052388;28;20052;-63
2023/04/06 03:17:15;;;;;;;17.77;5.95;;;;;;;;;;5052154;28;20347;-65
2023/04/06 03:19:41;;;;;;;14.80;5.80;;;;;;;;;;5052191;28;20083;-63
2023/04/06 03:22:07;;;;;;;15.18;5.90;;;;;;;;;;5052230;28;20057;-64
2023/04/06 03:24:33;;;;;;;24.38;6.55;;;;;;;;;;5052186;28;20029;-62
2023/04/06 03:27:00;;;;;;;14.75;6.68;;;;;;;;;;5052041;28;20090;-63
2023/04/06 03:29:26;;;;;;;16.17;6.18;;;;;;;;;;5052033;28;20176;-63
2023/04/06 03:31:53;;;;;;;22.42;5.38;;;;;;;;;;5051771;28;20520;-63
2023/04/06 03:34:19;;;;;;;16.88;6.35;;;;;;;;;;5052273;28;20021;-64
2023/04/06 03:36:45;;;;;;;19.50;6.60;;;;;;;;;;5052014;28;20021;-65
2023/04/06 03:39:11;;;;;;;16.23;7.68;;;;;;;;;;5051838;28;20029;-64
2023/04/06 03:41:37;;;;;;;24.85;6.07;;;;;;;;;;5051628;28;20068;-65
2023/04/06 03:44:04;;;;;;;12.25;4.78;;;;;;;;;;5051678;28;20025;-66
2023/04/06 03:46:30;;;;;;;11.35;4.88;;;;;;;;;;5051634;28;20051;-63
2023/04/06 03:48:56;;;;;;;7.82;4.10;;;;;;;;;;5051348;28;20023;-63
2023/04/06 03:51:22;;;;;;;8.98;4.72;;;;;;;;;;5051594;28;20025;-64
2023/04/06 03:53:48;;;;;;;12.25;4.28;;;;;;;;;;5051731;28;20013;-64
2023/04/06 03:56:14;;;;;;;8.10;4.07;;;;;;;;;;5051629;28;20075;-63
2023/04/06 03:58:40;;;;;;;12.80;4.30;;;;;;;;;;5051297;28;20025;-63
2023/04/06 04:01:06;;;;;;;12.55;4.10;;;;;;;;;;5051148;28;20076;-63
2023/04/06 04:03:32;;;;;;;13.93;4.35;;;;;;;;;;5051500;28;20028;-63
2023/04/06 04:05:58;;;;;;;7.18;4.07;;;;;;;;;;5051717;28;20495;-63
2023/04/06 04:08:25;;;;;;;6.15;4.40;;;;;;;;;;5051159;28;20109;-63
2023/04/06 04:10:51;;;;;;;14.38;5.97;;;;;;;;;;5051156;28;20087;-64
2023/04/06 04:13:17;;;;;;;15.18;5.05;;;;;;;;;;5051269;28;20025;-63
2023/04/06 04:15:43;;;;;;;10.52;3.25;;;;;;;;;;5051197;28;20021;-63
2023/04/06 04:18:09;;;;;;;10.63;4.88;;;;;;;;;;5051336;28;20039;-62
2023/04/06 04:20:35;;;;;;;11.18;4.20;;;;;;;;;;5051049;28;20055;-63
2023/04/06 04:23:01;;;;;;;14.43;4.72;;;;;;;;;;5051176;28;20505;-63
2023/04/06 04:25:27;;;;;;;17.98;4.43;;;;;;;;;;5049793;28;20473;-63
2023/04/06 04:27:53;;;;;;;11.23;4.22;;;;;;;;;;5051127;28;20032;-63
2023/04/06 04:30:19;;;;;;;9.32;3.95;;;;;;;;;;5050981;28;20033;-63
2023/04/06 04:32:45;;;;;;;10.10;3.83;;;;;;;;;;5051301;28;20024;-63
2023/04/06 04:35:13;;;;;;;11.43;3.03;;;;;;;;;;5051075;28;20025;-63
2023/04/06 04:37:39;;;;;;;13.02;3.85;;;;;;;;;;5050974;28;20047;-62
2023/04/06 04:40:05;;;;;;;7.60;3.25;;;;;;;;;;5050893;28;20430;-62
2023/04/06 04:42:31;;;;;;;6.75;2.75;;;;;;;;;;5050778;28;20080;-62
2023/04/06 04:44:57;;;;;;;7.30;3.30;;;;;;;;;;5050763;28;20056;-62
2023/04/06 04:47:23;;;;;;;5.32;2.67;;;;;;;;;;5051028;28;20024;-64
2023/04/06 04:49:49;;;;;;;12.10;3.83;;;;;;;;;;5051043;28;20028;-62
2023/04/06 04:52:15;;;;;;;14.68;4.40;;;;;;;;;;5051044;28;20029;-64
2023/04/06 04:54:42;;;;;;;16.85;4.78;;;;;;;;;;5051044;28;20389;-61
2023/04/06 04:57:08;;;;;;;13.98;4.60;;;;;;;;;;5050975;28;20533;-64
2023/04/06 04:59:35;;;;;;;10.38;3.97;;;;;;;;;;5050768;28;20025;-62
2023/04/06 05:02:01;;;;;;;17.40;5.53;;;;;;;;;;5051003;28;20037;-63
2023/04/06 05:04:27;;;;;;;13.55;5.72;;;;;;;;;;5050776;28;20025;-64
2023/04/06 05:07:04;;;;;;;26.98;6.88;;;;;;;;;;5050922;28;20029;-64
2023/04/06 05:09:31;;;;;;;26.20;8.27;;;;;;;;;;5050521;28;20029;-64
2023/04/06 05:11:57;;;;;;;19.42;6.32;;;;;;;;;;5050645;28;20025;-66
2023/04/06 05:14:23;;;;;;;19.30;6.70;;;;;;;;;;5052594;28;20509;-65
2023/04/06 05:16:49;;;;;;;19.08;7.10;;;;;;;;;;5053482;28;20079;-66
2023/04/06 05:19:15;;;;;;;21.25;7.45;;;;;;;;;;5053089;28;20025;-64
2023/04/06 05:21:41;;;;;;;17.27;7.30;;;;;;;;;;5063746;28;20094;-63
2023/04/06 05:24:08;;;;;;;16.05;7.57;;;;;;;;;;5073116;28;20103;-63
2023/04/06 05:26:34;;;;;;;15.75;7.75;;;;;;;;;;5054346;28;20025;-63
2023/04/06 05:29:00;;;;;;;22.50;8.48;;;;;;;;;;5053979;28;20029;-64
2023/04/06 05:31:26;;;;;;;29.67;10.52;;;;;;;;;;5052904;28;20059;-64
2023/04/06 05:33:52;;;;;;;29.67;9.82;;;;;;;;;;5054034;28;20063;-65
2023/04/06 05:36:19;;;;;;;30.77;11.07;;;;;;;;;;5052856;28;20070;-65
2023/04/06 05:38:45;;;;;;;34.58;10.57;;;;;;;;;;5054060;28;20090;-64
2023/04/06 05:41:11;;;;;;;39.53;10.10;;;;;;;;;;5053677;28;20106;-66
2023/04/06 05:43:37;;;;;;;44.42;11.00;;;;;;;;;;5054037;28;20021;-66
2023/04/06 05:46:03;;;;;;;43.78;12.07;;;;;;;;;;5052504;28;20116;-66
2023/04/06 05:48:29;;;;;;;32.30;11.00;;;;;;;;;;5053727;28;20489;-66
2023/04/06 05:50:55;;;;;;;37.80;10.50;;;;;;;;;;5053877;28;20028;-65
2023/04/06 05:53:22;;;;;;;27.75;10.38;;;;;;;;;;5053707;28;20029;-67
2023/04/06 05:55:48;;;;;;;36.58;9.40;;;;;;;;;;5053693;28;20071;-67
2023/04/06 05:58:14;;;;;;;28.55;10.18;;;;;;;;;;5053994;28;20071;-67
2023/04/06 06:00:42;;;;;;;23.55;9.23;;;;;;;;;;5053624;28;20656;-67
2023/04/06 06:03:08;;;;;;;27.30;9.43;;;;;;;;;;5053876;28;20072;-66
2023/04/06 06:05:34;;;;;;;37.75;9.25;;;;;;;;;;5035690;28;20036;-68
2023/04/06 06:08:01;;;;;;;31.73;9.90;;;;;;;;;;5053308;28;20100;-67
2023/04/06 06:10:28;;;;;;;39.17;10.07;;;;;;;;;;5052020;28;20037;-67
2023/04/06 06:12:54;;;;;;;40.10;12.57;;;;;;;;;;5053288;28;20031;-67
2023/04/06 06:15:20;;;;;;;48.45;12.13;;;;;;;;;;5053327;28;20032;-68
2023/04/06 06:17:46;;;;;;;35.28;10.90;;;;;;;;;;5052057;28;20128;-68
2023/04/06 06:20:12;;;;;;;41.90;10.95;;;;;;;;;;5053075;28;20025;-68
2023/04/06 06:22:40;;;;;;;38.38;9.52;;;;;;;;;;5053254;28;20035;-65
2023/04/06 06:25:06;;;;;;;35.65;9.00;;;;;;;;;;5053057;28;20017;-65
2023/04/06 06:27:32;;;;;;;36.22;9.10;;;;;;;;;;5052915;28;20493;-66
2023/04/06 06:29:58;;;;;;;34.40;9.65;;;;;;;;;;5052844;28;20029;-65
2023/04/06 06:32:24;;;;;;;36.42;8.60;;;;;;;;;;5063833;28;20465;-64
2023/04/06 06:34:50;;;;;;;48.03;9.85;;;;;;;;;;5073075;28;20598;-65
2023/04/06 06:37:16;;;;;;;91.00;11.25;;;;;;;;;;5072395;28;20028;-65
2023/04/06 06:39:42;;;;;;;50.58;9.60;;;;;;;;;;5072848;28;20033;-66
2023/04/06 06:42:08;;;;;;;208.80;16.98;;;;;;;;;;5059634;28;20055;-68
2023/04/06 06:44:34;;;;;;;80.20;11.73;;;;;;;;;;5052800;28;20105;-66
2023/04/06 06:47:00;;;;;;;42.15;10.80;;;;;;;;;;5052555;28;20033;-64
2023/04/06 06:49:27;;;;;;;74.30;13.80;;;;;;;;;;5053174;28;20021;-64
2023/04/06 06:51:53;;;;;;;62.53;13.82;;;;;;;;;;5051400;28;20033;-63
2023/04/06 06:54:19;;;;;;;52.40;13.60;;;;;;;;;;5052503;28;20064;-64
2023/04/06 06:56:45;;;;;;;93.53;15.13;;;;;;;;;;5052714;28;20068;-64
2023/04/06 06:59:11;;;;;;;57.42;15.95;;;;;;;;;;5051215;28;20556;-65
2023/04/06 07:01:38;;;;;;;83.57;15.43;;;;;;;;;;5052478;28;20116;-63
2023/04/06 07:04:04;;;;;;;214.00;19.65;;;;;;;;;;5052477;28;20025;-65
2023/04/06 07:06:30;;;;;;;63.65;13.60;;;;;;;;;;5052404;28;20082;-64
2023/04/06 07:08:56;;;;;;;52.70;12.77;;;;;;;;;;5052519;28;20024;-64
2023/04/06 07:11:22;;;;;;;38.47;10.00;;;;;;;;;;5052318;28;20466;-65
2023/04/06 07:13:48;;;;;;;36.97;8.60;;;;;;;;;;5052450;28;20080;-65
2023/04/06 07:16:14;;;;;;;27.08;8.50;;;;;;;;;;5051254;28;20025;-65
2023/04/06 07:18:43;;;;;;;42.05;11.50;;;;;;;;;;5052048;28;20029;-64
2023/04/06 07:21:09;;;;;;;43.47;10.63;;;;;;;;;;5032007;28;20037;-63
2023/04/06 07:23:35;;;;;;;40.88;10.13;;;;;;;;;;5043597;28;20025;-64
2023/04/06 07:26:01;;;;;;;38.00;9.10;;;;;;;;;;5052366;28;20036;-63
2023/04/06 07:28:27;;;;;;;27.80;7.03;;;;;;;;;;5051939;28;20036;-64
2023/04/06 07:30:54;;;;;;;27.50;7.53;;;;;;;;;;5051999;28;20017;-64
2023/04/06 07:33:20;;;;;;;27.83;7.30;;;;;;;;;;5051710;28;20489;-63
2023/04/06 07:35:46;;;;;;;28.27;6.20;;;;;;;;;;5051827;28;20037;-63
2023/04/06 07:38:13;;;;;;;32.30;7.30;;;;;;;;;;5051361;28;20029;-65
2023/04/06 07:40:39;;;;;;;23.17;5.20;;;;;;;;;;5052016;28;20060;-64
2023/04/06 07:43:05;;;;;;;12.73;5.15;;;;;;;;;;5051464;28;20087;-64
2023/04/06 07:45:31;;;;;;;28.65;6.45;;;;;;;;;;5051813;28;20025;-65
2023/04/06 07:47:57;;;;;;;21.40;6.18;;;;;;;;;;5049977;28;20021;-67
2023/04/06 07:50:23;;;;;;;25.88;6.35;;;;;;;;;;5049695;28;20132;-66
2023/04/06 07:52:49;;;;;;;25.95;7.05;;;;;;;;;;5050149;28;20465;-66
2023/04/06 07:55:15;;;;;;;21.08;5.72;;;;;;;;;;5051219;28;20453;-65
2023/04/06 07:57:41;;;;;;;16.50;5.70;;;;;;;;;;5051231;28;20029;-65
2023/04/06 08:00:09;;;;;;;18.08;5.18;;;;;;;;;;5051575;28;20021;-67
2023/04/06 08:02:35;;;;;;;15.18;4.45;;;;;;;;;;5051461;28;20515;-66
2023/04/06 08:05:01;;;;;;;15.65;4.60;;;;;;;;;;5051258;28;20029;-66
2023/04/06 08:07:27;;;;;;;15.82;5.15;;;;;;;;;;5051459;28;20394;-66
2023/04/06 08:09:53;;;;;;;15.68;4.50;;;;;;;;;;5051080;28;20150;-65
2023/04/06 08:12:19;;;;;;;10.23;3.95;;;;;;;;;;5051223;28;20135;-66
2023/04/06 08:14:45;;;;;;;11.70;4.35;;;;;;;;;;5051176;28;20056;-64
2023/04/06 08:17:11;;;;;;;14.65;3.95;;;;;;;;;;5051545;28;20020;-65
2023/04/06 08:19:37;;;;;;;16.25;4.97;;;;;;;;;;5050871;28;20026;-64
2023/04/06 08:22:03;;;;;;;17.33;6.03;;;;;;;;;;5065661;28;20229;-63
2023/04/06 08:24:30;;;;;;;21.98;6.22;;;;;;;;;;5054150;28;20589;-64
2023/04/06 08:26:56;;;;;;;15.60;6.60;;;;;;;;;;5065397;28;20028;-65
2023/04/06 08:29:22;;;;;;;16.48;7.10;;;;;;;;;;5059988;28;20052;-65
2023/04/06 08:31:48;;;;;;;26.88;8.20;;;;;;;;;;5058182;28;20064;-66
2023/04/06 08:34:14;;;;;;;18.48;7.40;;;;;;;;;;5066869;28;20024;-68
2023/04/06 08:36:41;;;;;;;18.77;8.27;;;;;;;;;;5054268;28;20032;-68
2023/04/06 08:39:07;;;;;;;17.80;6.57;;;;;;;;;;5063788;28;20021;-68
2023/04/06 08:41:35;;;;;;;18.55;6.45;;;;;;;;;;5061000;28;20060;-69
2023/04/06 08:44:02;;;;;;;23.33;7.05;;;;;;;;;;5055080;28;20078;-69
2023/04/06 08:46:30;;;;;;;37.72;8.32;;;;;;;;;;5064785;28;20033;-69
2023/04/06 08:48:57;;;;;;;14.38;4.40;;;;;;;;;;5068490;28;20100;-71
2023/04/06 08:51:26;;;;;;;9.60;3.17;;;;;;;;;;5075175;28;20664;-73
2023/04/06 08:53:56;;;;;;;20.20;3.88;;;;;;;;;;5075231;28;20078;-73
2023/04/06 08:56:22;;;;;;;13.05;3.08;;;;;;;;;;5074836;28;20032;-74
2023/04/06 08:58:49;;;;;;;18.13;3.47;;;;;;;;;;5055118;28;20364;-73
2023/04/06 09:01:17;;;;;;;16.65;5.75;;;;;;;;;;5049051;28;20036;-75
2023/04/06 09:03:44;;;;;;;20.73;5.22;;;;;;;;;;5048032;28;20565;-74
2023/04/06 09:06:11;;;;;;;22.08;6.22;;;;;;;;;;5035075;28;20025;-75
2023/04/06 09:08:38;;;;;;;19.25;5.68;;;;;;;;;;5034915;28;20382;-76
2023/04/06 09:11:05;;;;;;;21.85;6.93;;;;;;;;;;5034676;28;20025;-76
2023/04/06 09:13:31;;;;;;;25.48;7.55;;;;;;;;;;5034534;28;20025;-76
2023/04/06 09:16:03;;;;;;;27.52;5.63;;;;;;;;;;5045368;28;20139;-74
2023/04/06 09:18:33;;;;;;;12.00;3.63;;;;;;;;;;5051061;28;20021;-75
2023/04/06 09:20:59;;;;;;;20.38;4.57;;;;;;;;;;5065157;28;20051;-77
2023/04/06 09:23:25;;;;;;;19.42;5.05;;;;;;;;;;5067217;28;20024;-76
2023/04/06 09:25:51;;;;;;;16.83;4.80;;;;;;;;;;5057725;28;20585;-76
2023/04/06 09:28:17;;;;;;;20.67;5.95;;;;;;;;;;5069931;28;20112;-76
2023/04/06 09:30:49;;;;;;;26.75;5.75;;;;;;;;;;5061379;28;20105;-75
2023/04/06 09:33:22;;;;;;;19.02;5.85;;;;;;;;;;5062604;28;20040;-74
2023/04/06 09:35:51;;;;;;;14.05;4.70;;;;;;;;;;5070303;28;20031;-74
2023/04/06 09:38:17;;;;;;;16.35;4.93;;;;;;;;;;5043749;28;20133;-72
2023/04/06 09:40:52;;;;;;;18.45;5.45;;;;;;;;;;5059060;28;20059;-73
2023/04/06 09:43:25;;;;;;;16.60;3.65;;;;;;;;;;5055997;28;20095;-73
2023/04/06 09:45:52;;;;;;;11.52;2.53;;;;;;;;;;5048038;28;20091;-74
2023/04/06 09:48:19;;;;;;;9.80;2.78;;;;;;;;;;5065659;28;20032;-74
2023/04/06 09:50:45;;;;;;;12.68;4.75;;;;;;;;;;5065108;28;20119;-72
2023/04/06 09:53:11;;;;;;;18.55;5.75;;;;;;;;;;5059747;28;20029;-73
2023/04/06 09:55:40;;;;;;;9.43;2.85;;;;;;;;;;5051729;28;20029;-71
2023/04/06 09:58:08;;;;;;;13.70;2.85;;;;;;;;;;5048530;28;20092;-73
2023/04/06 10:00:45;;;;;;;9.93;2.83;;;;;;;;;;5051426;28;20628;-71
2023/04/06 10:03:14;;;;;;;12.95;3.20;;;;;;;;;;5050248;28;20075;-71
2023/04/06 10:05:40;;;;;;;10.98;2.70;;;;;;;;;;5072342;28;20384;-71
2023/04/06 10:08:10;;;;;;;13.70;2.72;;;;;;;;;;5072321;28;20032;-69
2023/04/06 10:10:36;;;;;;;13.75;2.72;;;;;;;;;;5059791;28;20025;-70
2023/04/06 10:13:03;;;;;;;14.23;4.25;;;;;;;;;;5052206;28;20039;-71
2023/04/06 10:15:30;;;;;;;16.30;3.42;;;;;;;;;;5052024;28;20473;-70
2023/04/06 10:17:56;;;;;;;19.20;3.50;;;;;;;;;;5052140;28;20020;-69
2023/04/06 10:20:25;;;;;;;22.73;4.25;;;;;;;;;;5051945;28;20025;-69
2023/04/06 10:22:53;;;;;;;14.68;3.05;;;;;;;;;;5051979;28;20044;-70
2023/04/06 10:25:33;;;;;;;14.57;3.00;;;;;;;;;;5052050;28;20037;-69
2023/04/06 10:28:09;;;;;;;17.90;3.03;;;;;;;;;;5052150;28;20032;-69
2023/04/06 10:30:41;;;;;;;20.35;3.42;;;;;;;;;;5057569;28;20421;-69
2023/04/06 10:33:16;;;;;;;12.25;2.90;;;;;;;;;;5072052;28;20034;-69
2023/04/06 10:35:42;;;;;;;15.63;3.72;;;;;;;;;;5070270;28;20094;-68
2023/04/06 10:38:08;;;;;;;22.30;4.13;;;;;;;;;;5071832;28;20039;-69
2023/04/06 10:40:38;;;;;;;14.52;3.22;;;;;;;;;;5071825;28;20051;-69
2023/04/06 10:43:12;;;;;;;14.65;3.85;;;;;;;;;;5029793;28;1225625;-69
2023/04/06 10:45:38;;;;;;;15.73;3.40;;;;;;;;;;5072842;28;20481;-69
2023/04/06 10:48:17;;;;;;;14.48;3.40;;;;;;;;;;5073167;28;20059;-69
2023/04/06 10:50:50;;;;;;;21.05;3.85;;;;;;;;;;5072779;28;20029;-68
2023/04/06 10:53:23;;;;;;;12.25;3.80;;;;;;;;;;5072571;28;20100;-69
2023/04/06 10:55:53;;;;;;;16.58;4.60;;;;;;;;;;5071430;28;20385;-69
2023/04/06 10:58:19;;;;;;;28.35;6.38;;;;;;;;;;5058445;28;20457;-68
2023/04/06 11:00:49;;;;;;;17.70;4.90;;;;;;;;;;5052513;28;20025;-68
2023/04/06 11:03:16;;;;;;;18.90;3.63;;;;;;;;;;5052489;28;20029;-68
2023/04/06 11:05:45;;;;;;;19.77;5.15;;;;;;;;;;5052445;28;20036;-67
2023/04/06 11:08:22;;;;;;;15.85;2.85;;;;;;;;;;5052482;28;20595;-67
2023/04/06 11:10:49;;;;;;;17.10;3.70;;;;;;;;;;5051871;28;20028;-68
2023/04/06 11:13:15;;;;;;;14.63;3.80;;;;;;;;;;5052070;28;20096;-68
2023/04/06 11:15:41;;;;;;;19.65;5.03;;;;;;;;;;5044527;28;20017;-70
2023/04/06 11:18:07;;;;;;;16.88;4.38;;;;;;;;;;5052230;28;20032;-69
2023/04/06 11:20:33;;;;;;;17.90;4.13;;;;;;;;;;5052094;28;20032;-69
2023/04/06 11:22:59;;;;;;;16.63;4.15;;;;;;;;;;5040881;28;20026;-70
2023/04/06 11:25:31;;;;;;;19.80;4.25;;;;;;;;;;5032147;28;20033;-71
2023/04/06 11:27:57;;;;;;;18.42;5.40;;;;;;;;;;5030678;28;20394;-72
2023/04/06 11:30:23;;;;;;;17.65;4.05;;;;;;;;;;5043876;28;20017;-70
2023/04/06 11:32:49;;;;;;;13.00;3.95;;;;;;;;;;5041525;28;20029;-72
2023/04/06 11:35:22;;;;;;;18.83;4.75;;;;;;;;;;5040206;28;20075;-70
2023/04/06 11:37:49;;;;;;;13.63;2.40;;;;;;;;;;5040831;28;20131;-68
2023/04/06 11:40:16;;;;;;;17.33;4.57;;;;;;;;;;5040664;28;20512;-70
2023/04/06 11:42:42;;;;;;;9.82;3.50;;;;;;;;;;5032310;28;20042;-68
2023/04/06 11:45:08;;;;;;;20.50;3.75;;;;;;;;;;5031689;28;20056;-68
2023/04/06 11:47:36;;;;;;;10.50;4.22;;;;;;;;;;5031976;28;20033;-70
2023/04/06 11:50:09;;;;;;;12.13;3.83;;;;;;;;;;5031823;28;20041;-75
2023/04/06 11:52:36;;;;;;;11.25;2.97;;;;;;;;;;5030432;28;20029;-74
2023/04/06 11:55:11;;;;;;;23.02;3.58;;;;;;;;;;5031881;28;20211;-72
2023/04/06 11:57:37;;;;;;;20.42;3.63;;;;;;;;;;5031409;28;20022;-72
2023/04/06 12:00:04;;;;;;;10.10;2.88;;;;;;;;;;5031635;28;20063;-73
2023/04/06 12:02:31;;;;;;;13.98;3.28;;;;;;;;;;5031459;28;20040;-73
2023/04/06 12:04:58;;;;;;;11.32;3.15;;;;;;;;;;5030226;28;20072;-71
2023/04/06 12:07:24;;;;;;;15.57;2.58;;;;;;;;;;5031615;28;20022;-73
2023/04/06 12:09:50;;;;;;;16.08;2.50;;;;;;;;;;5031476;28;20017;-78
2023/04/06 12:12:16;;;;;;;9.88;2.47;;;;;;;;;;5031338;28;20025;-72
2023/04/06 12:14:42;;;;;;;7.88;2.45;;;;;;;;;;5030415;28;20029;-77
2023/04/06 12:17:08;;;;;;;18.88;3.17;;;;;;;;;;5031551;28;20038;-79
2023/04/06 12:19:34;;;;;;;12.68;2.55;;;;;;;;;;5031522;28;20021;-81
2023/04/06 12:22:01;;;;;;;9.68;2.22;;;;;;;;;;5030138;28;20044;-77
2023/04/06 12:24:28;;;;;;;11.82;2.28;;;;;;;;;;5031511;28;20147;-74
2023/04/06 12:26:54;;;;;;;12.68;2.58;;;;;;;;;;5031127;28;20022;-72
2023/04/06 12:29:20;;;;;;;15.05;4.13;;;;;;;;;;5031152;28;20100;-73
2023/04/06 12:31:46;;;;;;;25.75;3.78;;;;;;;;;;5031286;28;20381;-73
2023/04/06 12:34:12;;;;;;;14.13;2.78;;;;;;;;;;5031096;28;20582;-73
2023/04/06 12:36:39;;;;;;;14.48;3.00;;;;;;;;;;5031221;28;20061;-75
2023/04/06 12:39:05;;;;;;;16.05;2.50;;;;;;;;;;5029836;28;20067;-74
2023/04/06 12:41:32;;;;;;;10.68;2.05;;;;;;;;;;5031084;28;20042;-74
2023/04/06 12:44:01;;;;;;;18.63;3.42;;;;;;;;;;5031140;28;20052;-79
2023/04/06 12:46:30;;;;;;;11.30;2.65;;;;;;;;;;5031389;28;20055;-79
2023/04/06 12:48:57;;;;;;;13.55;3.08;;;;;;;;;;5032665;28;20180;-80
2023/04/06 12:51:23;;;;;;;20.35;3.35;;;;;;;;;;5032241;28;20376;-74
2023/04/06 12:53:50;;;;;;;19.00;3.78;;;;;;;;;;5030791;28;20070;-75
2023/04/06 12:56:17;;;;;;;15.60;3.22;;;;;;;;;;5030845;28;20102;-74
2023/04/06 12:58:43;;;;;;;13.65;2.53;;;;;;;;;;5030546;28;20033;-73
2023/04/06 13:01:11;;;;;;;17.30;4.38;;;;;;;;;;5030845;28;20467;-77
2023/04/06 13:03:37;;;;;;;9.68;3.05;;;;;;;;;;5031115;28;20037;-74
2023/04/06 13:06:03;;;;;;;15.13;2.65;;;;;;;;;;5030839;28;20021;-73
2023/04/06 13:08:29;;;;;;;21.33;4.07;;;;;;;;;;5030941;28;20025;-77
2023/04/06 13:10:56;;;;;;;20.33;2.80;;;;;;;;;;5031286;28;20208;-77
2023/04/06 13:13:26;;;;;;;17.38;3.70;;;;;;;;;;5031024;28;20025;-77
2023/04/06 13:15:56;;;;;;;19.77;4.40;;;;;;;;;;5030960;28;20049;-77
2023/04/06 13:18:22;;;;;;;18.75;3.50;;;;;;;;;;5030786;28;20034;-73
2023/04/06 13:20:49;;;;;;;21.95;3.00;;;;;;;;;;5031032;28;20129;-73
2023/04/06 13:23:15;;;;;;;20.05;3.42;;;;;;;;;;5030551;28;20022;-74
2023/04/06 13:25:41;;;;;;;30.42;3.63;;;;;;;;;;5030785;28;20466;-81
2023/04/06 13:28:08;;;;;;;23.45;4.20;;;;;;;;;;5030517;28;20470;-77
2023/04/06 13:30:34;;;;;;;18.17;3.83;;;;;;;;;;5030579;28;20025;-74
2023/04/06 13:33:01;;;;;;;22.60;3.08;;;;;;;;;;5030751;28;20033;-78
2023/04/06 13:35:27;;;;;;;11.07;2.95;;;;;;;;;;5032836;28;20540;-74
2023/04/06 13:37:53;;;;;;;21.30;2.92;;;;;;;;;;5034108;28;20037;-75
2023/04/06 13:40:20;;;;;;;10.35;2.25;;;;;;;;;;5032872;28;20029;-80
2023/04/06 13:42:47;;;;;;;13.90;2.85;;;;;;;;;;5033998;28;20081;-77
2023/04/06 13:45:13;;;;;;;19.33;3.40;;;;;;;;;;5034000;28;20124;-75
2023/04/06 13:47:39;;;;;;;16.83;3.03;;;;;;;;;;5034289;28;20029;-82
2023/04/06 13:50:05;;;;;;;21.85;3.20;;;;;;;;;;5034126;28;20014;-73
2023/04/06 13:52:32;;;;;;;17.45;3.42;;;;;;;;;;5033916;28;20030;-79
2023/04/06 13:54:58;;;;;;;20.48;2.75;;;;;;;;;;5034036;28;20052;-74
2023/04/06 13:57:24;;;;;;;29.25;4.22;;;;;;;;;;5033828;28;20022;-73
2023/04/06 13:59:50;;;;;;;19.08;3.05;;;;;;;;;;5033946;28;20028;-74
2023/04/06 14:02:17;;;;;;;19.55;2.40;;;;;;;;;;5033740;28;20030;-74
2023/04/06 14:04:43;;;;;;;12.20;2.70;;;;;;;;;;5033807;28;20029;-74
2023/04/06 14:07:09;;;;;;;22.13;3.35;;;;;;;;;;5033898;28;20022;-79
2023/04/06 14:09:35;;;;;;;13.18;2.72;;;;;;;;;;5033663;28;20025;-75
2023/04/06 14:12:02;;;;;;;16.58;2.95;;;;;;;;;;5033920;28;20018;-73
2023/04/06 14:14:28;;;;;;;10.13;2.00;;;;;;;;;;5033547;28;20488;-73
2023/04/06 14:16:54;;;;;;;17.25;2.55;;;;;;;;;;5032602;28;20025;-74
2023/04/06 14:19:23;;;;;;;17.65;1.83;;;;;;;;;;5033694;28;20100;-73
2023/04/06 14:21:49;;;;;;;13.98;2.08;;;;;;;;;;5033232;28;20439;-77
2023/04/06 14:24:17;;;;;;;15.13;2.47;;;;;;;;;;5032962;28;20433;-79
2023/04/06 14:26:44;;;;;;;24.67;3.20;;;;;;;;;;5033195;28;20528;-75